F/V Roger Christian3 — FUFL — position and weather

sailwx.info

Track history (hours):
 
Tides and Currents Weather Stations Pressure Air Temp Water Temp Dewpoint Dewpoint Depression Visibility Wind Speed Wind Dir Waves Ship Positions

F/V Roger Christian3

Last reported at 2016-Aug-25 19:06 UTC. Time now 2016-Aug-26 03:16 UTC.
Position N 43°24' E 003°42'.

Length 24 m; draft 4 m.

Type: Fishing. MMSI: 228173800.

Date/timePositionNaut miles runAvg speedWind from/ knotsBaromVisibWave heightAir tempDewpointWater temp
2016-Aug-25 19:06N 43°24' E 003°42'0 0.0
2016-Aug-25 18:31N 43°24' E 003°42'0 0.0
2016-Aug-25 16:06N 43°24' E 003°42'2 1.4
2016-Aug-25 14:19N 43°22' E 003°44'11 4.9
2016-Aug-25 12:11N 43°19' E 003°58'3 4.3
2016-Aug-25 11:33N 43°17' E 004°00'17 4.0
2016-Aug-25 07:20N 43°00' E 003°58'16 3.1
2016-Aug-25 02:07N 43°16' E 003°57'6 0.4
2016-Aug-24 10:09N 43°11' E 004°02'8 4.3
2016-Aug-24 08:20N 43°06' E 003°54'4 4.4
2016-Aug-24 07:29N 43°04' E 003°50'2 1.9
2016-Aug-24 06:20N 43°02' E 003°49'15 4.0
2016-Aug-24 02:32N 43°15' E 003°59'9 7.3
2016-Aug-24 01:19N 43°20' E 003°49'6 6.9
2016-Aug-24 00:24N 43°24' E 003°42'0 0.0
2016-Aug-23 23:33N 43°24' E 003°42'0 0.0
2016-Aug-23 22:33N 43°24' E 003°42'0 0.0
2016-Aug-23 20:33N 43°24' E 003°42'24 2.1
2016-Aug-23 09:07N 43°01' E 003°36'7 4.2
2016-Aug-23 07:33N 42°56' E 003°31'  
2016-Aug-18 10:31N 43°05' E 004°13'4 4.3
2016-Aug-18 09:32N 43°03' E 004°18'4 4.3
2016-Aug-18 08:33N 42°60' E 004°22'  
Track history (hours):
 
Tides and Currents Weather Stations Pressure Air Temp Water Temp Dewpoint Dewpoint Depression Visibility Wind Speed Wind Dir Waves Ship Positions

F/V Roger Christian3

Last reported at 2016-Aug-25 19:06 UTC. Time now 2016-Aug-26 03:16 UTC.
Position N 43°24' E 003°42'.

Length 24 m; draft 4 m.

Type: Fishing. MMSI: 228173800.

Date/timePositionNaut miles runAvg speedWind from/ knotsBaromVisibWave heightAir tempDewpointWater temp
2016-Aug-25 19:06N 43°24' E 003°42'0 0.0
2016-Aug-25 18:31N 43°24' E 003°42'0 0.0
2016-Aug-25 16:06N 43°24' E 003°42'2 1.4
2016-Aug-25 14:19N 43°22' E 003°44'11 4.9
2016-Aug-25 12:11N 43°19' E 003°58'3 4.3
2016-Aug-25 11:33N 43°17' E 004°00'17 4.0
2016-Aug-25 07:20N 43°00' E 003°58'16 3.1
2016-Aug-25 02:07N 43°16' E 003°57'6 0.4
2016-Aug-24 10:09N 43°11' E 004°02'8 4.3
2016-Aug-24 08:20N 43°06' E 003°54'4 4.4
2016-Aug-24 07:29N 43°04' E 003°50'2 1.9
2016-Aug-24 06:20N 43°02' E 003°49'15 4.0
2016-Aug-24 02:32N 43°15' E 003°59'9 7.3
2016-Aug-24 01:19N 43°20' E 003°49'6 6.9
2016-Aug-24 00:24N 43°24' E 003°42'0 0.0
2016-Aug-23 23:33N 43°24' E 003°42'0 0.0
2016-Aug-23 22:33N 43°24' E 003°42'0 0.0
2016-Aug-23 20:33N 43°24' E 003°42'24 2.1
2016-Aug-23 09:07N 43°01' E 003°36'7 4.2
2016-Aug-23 07:33N 42°56' E 003°31'  
2016-Aug-18 10:31N 43°05' E 004°13'4 4.3
2016-Aug-18 09:32N 43°03' E 004°18'4 4.3
2016-Aug-18 08:33N 42°60' E 004°22'  

Dump ship's entire track history